createdAt,value
2022-10-19T00:01:15.270Z,99908.88
2022-10-19T00:03:44.540Z,99879.34
2022-10-19T00:06:20.025Z,99902.88
2022-10-19T00:08:47.145Z,99915.16
2022-10-19T00:11:14.115Z,99890.28
2022-10-19T00:13:41.197Z,99884.31
2022-10-19T00:16:14.358Z,99885.66
2022-10-19T00:18:43.649Z,99898.50
2022-10-19T00:21:13.722Z,99885.94
2022-10-19T00:23:40.926Z,99887.53
2022-10-19T00:26:08.267Z,99879.06
2022-10-19T00:28:35.156Z,99877.13
2022-10-19T00:31:07.488Z,99869.22
2022-10-19T00:33:34.416Z,99865.91
2022-10-19T00:36:01.931Z,99865.63
2022-10-19T00:38:28.798Z,99870.25
2022-10-19T00:40:55.834Z,99856.31
2022-10-19T00:43:28.100Z,99854.94
2022-10-19T00:45:55.145Z,99845.91
2022-10-19T00:48:28.152Z,99854.06
2022-10-19T00:50:58.674Z,99837.66
2022-10-19T00:53:28.903Z,99842.06
2022-10-19T00:55:57.376Z,99846.44
2022-10-19T00:58:24.595Z,99839.88
2022-10-19T01:00:51.634Z,99841.47
2022-10-19T01:03:18.746Z,99823.44
2022-10-19T01:05:46.055Z,99836.03
2022-10-19T01:08:13.775Z,99825.09
2022-10-19T01:11:06.660Z,99816.16
2022-10-19T01:13:54.956Z,99815.34
2022-10-19T01:16:31.088Z,99826.81
2022-10-19T01:19:30.179Z,99813.97
2022-10-19T01:22:14.174Z,99812.59
2022-10-19T01:25:10.888Z,99795.66
2022-10-19T01:28:10.097Z,99801.13
2022-10-19T01:30:50.181Z,99796.22
2022-10-19T01:33:31.122Z,99794.09
2022-10-19T01:36:13.039Z,99775.47
2022-10-19T01:39:01.092Z,99793.50
2022-10-19T01:41:48.837Z,99785.59
2022-10-19T01:44:44.870Z,99793.50
2022-10-19T01:47:29.419Z,99794.28
2022-10-19T01:50:15.448Z,99761.75
2022-10-19T01:52:43.307Z,99784.69
2022-10-19T01:55:14.088Z,99771.53
2022-10-19T01:57:48.011Z,99786.81
2022-10-19T02:00:17.139Z,99771.53
2022-10-19T02:02:48.405Z,99781.59
2022-10-19T02:05:17.385Z,99774.19
2022-10-19T02:07:48.555Z,99773.94
2022-10-19T02:12:43.441Z,99763.78
2022-10-19T02:15:14.470Z,99769.75
2022-10-19T02:17:46.947Z,99777.38
2022-10-19T02:20:15.133Z,99759.31
2022-10-19T02:22:42.738Z,99763.72
2022-10-19T02:25:11.055Z,99765.88
2022-10-19T02:27:42.147Z,99770.47
2022-10-19T02:30:11.169Z,99756.56
2022-10-19T02:32:38.626Z,99750.06
2022-10-19T02:35:06.249Z,99761.56
2022-10-19T02:37:33.599Z,99754.97
2022-10-19T02:40:01.266Z,99757.88
2022-10-19T02:42:54.598Z,99755.38
2022-10-19T02:45:30.035Z,99763.47
2022-10-19T02:48:09.058Z,99767.31
2022-10-19T02:50:36.389Z,99764.81
2022-10-19T02:53:03.347Z,99757.47
2022-10-19T02:55:31.543Z,99755.22
2022-10-19T02:57:58.477Z,99756.28
2022-10-19T03:00:25.410Z,99759.09
2022-10-19T03:02:52.336Z,99760.13
2022-10-19T03:05:19.293Z,99730.38
2022-10-19T03:07:46.971Z,99745.44
2022-10-19T03:10:14.003Z,99749.81
2022-10-19T03:12:40.781Z,99738.88
2022-10-19T03:15:08.452Z,99751.75
2022-10-19T03:17:36.043Z,99745.56
2022-10-19T03:20:03.512Z,99732.13
2022-10-19T03:22:30.890Z,99747.78
2022-10-19T03:24:57.813Z,99731.41
2022-10-19T03:27:25.031Z,99739.56
2022-10-19T03:29:52.048Z,99742.31
2022-10-19T03:32:19.063Z,99749.16
2022-10-19T03:34:45.989Z,99748.91
2022-10-19T03:37:15.317Z,99746.72
2022-10-19T03:39:42.290Z,99743.97
2022-10-19T03:42:09.142Z,99734.16
2022-10-19T03:44:36.284Z,99732.25
2022-10-19T03:47:03.346Z,99731.44
2022-10-19T03:49:30.170Z,99738.00
2022-10-19T03:51:57.193Z,99742.41
2022-10-19T03:54:27.258Z,99730.16
2022-10-19T03:56:54.581Z,99724.94
2022-10-19T03:59:21.954Z,99723.25
2022-10-19T04:01:48.964Z,99718.38
2022-10-19T04:04:18.244Z,99711.78
2022-10-19T04:06:47.838Z,99729.31
2022-10-19T04:09:18.436Z,99712.63
2022-10-19T04:11:45.940Z,99723.75
2022-10-19T04:14:26.884Z,99709.09
2022-10-19T04:17:03.821Z,99721.56
2022-10-19T04:19:31.857Z,99716.06
2022-10-19T04:21:58.868Z,99705.50
2022-10-19T04:24:25.968Z,99721.56
2022-10-19T04:26:55.066Z,99715.59
2022-10-19T04:29:26.460Z,99703.50
2022-10-19T04:31:56.701Z,99714.94
2022-10-19T04:34:24.429Z,99718.44
2022-10-19T04:36:53.695Z,99712.97
2022-10-19T04:39:23.565Z,99715.69
2022-10-19T04:41:50.746Z,99715.38
2022-10-19T04:44:17.874Z,99728.78
2022-10-19T04:46:44.923Z,99722.72
2022-10-19T04:49:14.133Z,99714.78
2022-10-19T04:51:45.031Z,99716.38
2022-10-19T04:54:11.902Z,99705.41
2022-10-19T04:56:39.921Z,99711.97
2022-10-19T04:59:07.585Z,99703.25
2022-10-19T05:01:34.604Z,99711.19
2022-10-19T05:04:02.791Z,99715.34
2022-10-19T05:06:31.368Z,99716.47
2022-10-19T05:08:58.909Z,99708.00
2022-10-19T05:11:26.590Z,99707.69
2022-10-19T05:13:53.734Z,99702.22
2022-10-19T05:16:22.582Z,99687.69
2022-10-19T05:18:51.546Z,99716.97
2022-10-19T05:21:20.674Z,99716.50
2022-10-19T05:23:50.665Z,99705.34
2022-10-19T05:26:20.141Z,99717.44
2022-10-19T05:28:56.312Z,99708.75
2022-10-19T05:31:26.622Z,99711.28
2022-10-19T05:33:54.261Z,99722.53
2022-10-19T05:36:26.413Z,99708.69
2022-10-19T05:38:57.818Z,99718.56
2022-10-19T05:41:25.489Z,99724.06
2022-10-19T05:43:58.342Z,99723.53
2022-10-19T05:46:27.429Z,99724.69
2022-10-19T05:48:58.992Z,99712.19
2022-10-19T05:51:27.467Z,99716.34
2022-10-19T05:53:55.377Z,99702.47
2022-10-19T05:56:26.081Z,99704.66
2022-10-19T05:58:53.577Z,99698.69
2022-10-19T06:01:20.713Z,99703.06
2022-10-19T06:03:51.460Z,99707.72
2022-10-19T06:06:19.063Z,99701.72
2022-10-19T06:08:46.422Z,99696.47
2022-10-19T06:11:16.242Z,99703.03
2022-10-19T06:13:44.524Z,99688.00
2022-10-19T06:16:14.241Z,99709.00
2022-10-19T06:18:42.907Z,99704.06
2022-10-19T06:21:16.069Z,99704.31
2022-10-19T06:23:43.298Z,99696.09
2022-10-19T06:26:13.585Z,99696.31
2022-10-19T06:28:42.995Z,99691.59
2022-10-19T06:31:11.197Z,99691.50
2022-10-19T06:33:40.417Z,99699.06
2022-10-19T06:36:13.925Z,99698.66
2022-10-19T06:38:41.991Z,99694.91
2022-10-19T06:41:09.976Z,99696.63
2022-10-19T06:43:37.388Z,99691.78
2022-10-19T06:46:09.811Z,99666.25
2022-10-19T06:48:36.928Z,99691.13
2022-10-19T06:51:09.350Z,99687.06
2022-10-19T06:53:37.297Z,99674.19
2022-10-19T06:56:06.698Z,99671.75
2022-10-19T06:58:40.549Z,99668.72
2022-10-19T07:01:08.744Z,99679.69
2022-10-19T07:03:36.682Z,99675.53
2022-10-19T07:06:09.233Z,99678.81
2022-10-19T07:08:38.115Z,99672.75
2022-10-19T07:11:25.291Z,99684.72
2022-10-19T07:13:53.642Z,99686.72
2022-10-19T07:16:21.793Z,99665.53
2022-10-19T07:18:53.481Z,99663.97
2022-10-19T07:21:23.326Z,99660.91
2022-10-19T07:23:50.867Z,99662.41
2022-10-19T07:26:24.884Z,99655.75
2022-10-19T07:28:52.370Z,99652.91
2022-10-19T07:31:21.858Z,99652.22
2022-10-19T07:34:01.054Z,99656.34
2022-10-19T07:36:30.683Z,99654.75
2022-10-19T07:38:57.782Z,99657.44
2022-10-19T07:41:26.630Z,99660.59
2022-10-19T07:43:54.406Z,99655.94
2022-10-19T07:46:25.409Z,99653.25
2022-10-19T07:48:53.007Z,99660.28
2022-10-19T07:51:21.123Z,99658.34
2022-10-19T07:53:48.595Z,99653.84
2022-10-19T07:56:21.753Z,99646.69
2022-10-19T07:58:50.549Z,99644.31
2022-10-19T08:01:19.717Z,99644.31
2022-10-19T08:06:35.224Z,99634.34
2022-10-19T08:09:02.253Z,99643.28
2022-10-19T08:11:32.624Z,99628.31
2022-10-19T08:14:02.846Z,99625.88
2022-10-19T08:16:44.413Z,99638.84
2022-10-19T08:19:12.644Z,99633.47
2022-10-19T08:21:41.854Z,99627.75
2022-10-19T08:24:09.639Z,99623.44
2022-10-19T08:26:39.047Z,99614.16
2022-10-19T08:29:13.535Z,99631.88
2022-10-19T08:31:42.440Z,99622.88
2022-10-19T08:34:09.851Z,99622.88
2022-10-19T08:36:37.369Z,99620.75
2022-10-19T08:39:06.512Z,99619.88
2022-10-19T08:42:03.670Z,99624.91
2022-10-19T08:44:52.234Z,99616.06
2022-10-19T08:47:42.546Z,99611.19
2022-10-19T08:50:26.989Z,99607.56
2022-10-19T08:53:26.136Z,99594.06
2022-10-19T08:56:05.702Z,99600.94
2022-10-19T08:58:50.643Z,99595.72
2022-10-19T09:01:32.684Z,99610.81
2022-10-19T09:04:23.781Z,99594.31
2022-10-19T09:07:27.561Z,99592.78
2022-10-19T09:10:03.052Z,99596.97
2022-10-19T09:12:55.137Z,99596.28
2022-10-19T09:15:45.079Z,99599.53
2022-10-19T09:18:33.373Z,99594.72
2022-10-19T09:21:30.967Z,99591.47
2022-10-19T09:24:16.223Z,99581.00
2022-10-19T09:26:52.108Z,99576.47
2022-10-19T09:29:25.364Z,99590.97
2022-10-19T09:34:27.425Z,99595.56
2022-10-19T09:36:58.138Z,99581.00
2022-10-19T09:39:29.491Z,99593.97
2022-10-19T09:42:00.497Z,99579.88
2022-10-19T09:44:28.059Z,99583.03
2022-10-19T09:47:16.299Z,99576.69
2022-10-19T09:49:48.902Z,99570.78
2022-10-19T09:52:40.035Z,99572.75
2022-10-19T09:55:36.557Z,99566.41
2022-10-19T09:58:18.688Z,99555.88
2022-10-19T10:00:56.863Z,99559.78
2022-10-19T10:03:43.912Z,99560.59
2022-10-19T10:06:15.742Z,99517.25
2022-10-19T10:08:52.825Z,99554.47
2022-10-19T10:11:30.425Z,99550.75
2022-10-19T10:14:07.509Z,99544.75
2022-10-19T10:16:37.266Z,99532.69
2022-10-19T10:19:08.310Z,99535.69
2022-10-19T10:21:50.474Z,99527.09
2022-10-19T10:24:20.037Z,99539.69
2022-10-19T10:26:50.857Z,99537.16
2022-10-19T10:29:32.790Z,99529.66
2022-10-19T10:32:06.257Z,99536.00
2022-10-19T10:34:46.356Z,99534.13
2022-10-19T10:37:40.481Z,99541.06
2022-10-19T10:40:26.916Z,99523.38
2022-10-19T10:42:57.554Z,99525.00
2022-10-19T10:45:32.671Z,99527.34
2022-10-19T10:48:26.153Z,99518.81
2022-10-19T10:50:53.326Z,99521.88
2022-10-19T10:53:33.251Z,99525.66
2022-10-19T10:56:00.236Z,99510.03
2022-10-19T10:58:36.083Z,99508.81
2022-10-19T11:01:08.052Z,99466.25
2022-10-19T11:03:39.111Z,99481.19
2022-10-19T11:06:09.225Z,99484.38
2022-10-19T11:08:46.275Z,99485.53
2022-10-19T11:11:48.935Z,99488.41
2022-10-19T11:14:16.194Z,99489.31
2022-10-19T11:16:46.219Z,99481.69
2022-10-19T11:19:27.442Z,99479.38
2022-10-19T11:22:06.534Z,99473.28
2022-10-19T11:24:51.679Z,99480.44
2022-10-19T11:27:30.757Z,99482.78
2022-10-19T11:29:57.564Z,99482.88
2022-10-19T11:32:49.044Z,99466.97
2022-10-19T11:35:24.083Z,99463.28
2022-10-19T11:38:20.133Z,99452.38
2022-10-19T11:41:18.149Z,99443.59
2022-10-19T11:44:21.063Z,99450.66
2022-10-19T11:46:57.661Z,99450.22
2022-10-19T11:50:12.045Z,99442.88
2022-10-19T11:52:53.195Z,99441.50
2022-10-19T11:55:51.302Z,99432.69
2022-10-19T11:58:34.584Z,99441.75
2022-10-19T12:01:25.561Z,99436.63
2022-10-19T12:04:20.465Z,99437.88
2022-10-19T12:06:50.630Z,99438.22
2022-10-19T12:09:28.225Z,99433.09
2022-10-19T12:12:22.266Z,99436.78
2022-10-19T12:14:59.210Z,99423.56
2022-10-19T12:17:31.376Z,99431.50
2022-10-19T12:20:39.871Z,99425.19
2022-10-19T12:23:38.631Z,99422.84
2022-10-19T12:26:10.056Z,99412.50
2022-10-19T12:28:41.924Z,99417.06
2022-10-19T12:31:10.017Z,99420.06
2022-10-19T12:33:37.032Z,99422.19
2022-10-19T12:36:07.083Z,99409.22
2022-10-19T12:39:00.849Z,99408.63
2022-10-19T12:41:27.816Z,99409.50
2022-10-19T12:44:06.709Z,99404.81
2022-10-19T12:46:52.980Z,99400.72
2022-10-19T12:49:27.237Z,99393.97
2022-10-19T12:51:56.415Z,99401.06
2022-10-19T12:54:26.038Z,99393.53
2022-10-19T12:56:55.921Z,99384.28
2022-10-19T12:59:26.192Z,99395.28
2022-10-19T13:01:55.095Z,99391.69
2022-10-19T13:04:25.878Z,99388.25
2022-10-19T13:06:58.976Z,99385.97
2022-10-19T13:09:42.116Z,99391.91
2022-10-19T13:12:22.186Z,99387.22
2022-10-19T13:15:04.303Z,99378.13
2022-10-19T13:17:35.217Z,99380.97
2022-10-19T13:20:15.178Z,99381.94
2022-10-19T13:23:13.464Z,99365.88
2022-10-19T13:25:41.633Z,99375.63
2022-10-19T13:28:11.199Z,99367.44
2022-10-19T13:30:39.044Z,99364.63
2022-10-19T13:33:25.327Z,99374.38
2022-10-19T13:36:08.158Z,99363.97
2022-10-19T13:39:00.234Z,99368.00
2022-10-19T13:41:48.521Z,99361.84
2022-10-19T13:44:18.599Z,99357.59
2022-10-19T13:47:34.329Z,99359.66
2022-10-19T13:50:21.941Z,99356.19
2022-10-19T13:53:07.076Z,99361.19
2022-10-19T13:55:42.171Z,99349.47
2022-10-19T13:58:21.251Z,99359.72
2022-10-19T14:00:54.227Z,99363.38
2022-10-19T14:03:33.863Z,99352.69
2022-10-19T14:06:28.621Z,99341.69
2022-10-19T14:09:29.106Z,99332.53
2022-10-19T14:12:07.096Z,99331.19
2022-10-19T14:14:45.152Z,99340.44
2022-10-19T14:17:32.475Z,99339.34
2022-10-19T14:20:00.747Z,99290.06
2022-10-19T14:22:34.128Z,99339.69
2022-10-19T14:25:07.447Z,99326.28
2022-10-19T14:27:35.493Z,99332.94
2022-10-19T14:30:03.170Z,99323.69
2022-10-19T14:32:34.364Z,99329.56
2022-10-19T14:37:44.180Z,99332.34
2022-10-19T14:40:17.230Z,99330.00
2022-10-19T14:42:46.532Z,99337.72
2022-10-19T14:45:21.367Z,99327.56
2022-10-19T14:48:06.181Z,99344.75
2022-10-19T14:50:40.815Z,99333.41
2022-10-19T14:53:36.877Z,99339.69
2022-10-19T14:56:14.204Z,99334.03
2022-10-19T14:59:02.649Z,99345.97
2022-10-19T15:01:30.482Z,99351.28
2022-10-19T15:03:57.680Z,99340.97
2022-10-19T15:06:29.996Z,99348.69
2022-10-19T15:09:01.928Z,99343.22
2022-10-19T15:11:38.111Z,99332.53
2022-10-19T15:14:14.431Z,99339.53
2022-10-19T15:16:52.073Z,99346.31
2022-10-19T15:19:25.386Z,99338.72
2022-10-19T15:22:27.064Z,99333.00
2022-10-19T15:25:25.885Z,99340.72
2022-10-19T15:27:54.482Z,99333.72
2022-10-19T15:30:29.638Z,99331.31
2022-10-19T15:33:10.675Z,99335.97
2022-10-19T15:35:40.401Z,99350.53
2022-10-19T15:38:11.524Z,99345.56
2022-10-19T15:40:41.447Z,99347.84
2022-10-19T15:43:35.010Z,99347.38
2022-10-19T15:46:07.452Z,99352.53
2022-10-19T15:48:40.466Z,99349.44
2022-10-19T15:51:26.900Z,99360.69
2022-10-19T15:54:02.175Z,99350.56
2022-10-19T15:56:32.183Z,99350.63
2022-10-19T15:59:02.161Z,99352.53
2022-10-19T16:01:32.839Z,99354.41
2022-10-19T16:04:00.054Z,99354.84
2022-10-19T16:06:29.194Z,99349.84
2022-10-19T16:08:58.705Z,99353.81
2022-10-19T16:11:27.193Z,99339.25
2022-10-19T16:13:54.100Z,99364.31
2022-10-19T16:16:32.718Z,99364.56
2022-10-19T16:19:00.044Z,99366.06
2022-10-19T16:21:34.136Z,99379.41
2022-10-19T16:24:01.359Z,99381.78
2022-10-19T16:26:29.254Z,99380.34
2022-10-19T16:28:56.388Z,99391.91
2022-10-19T16:31:24.993Z,99389.63
2022-10-19T16:33:52.039Z,99383.78
2022-10-19T16:36:20.671Z,99398.25
2022-10-19T16:38:48.279Z,99407.69
2022-10-19T16:41:16.904Z,99400.25
2022-10-19T16:43:44.385Z,99401.06
2022-10-19T16:46:11.596Z,99405.31
2022-10-19T16:48:38.611Z,99386.69
2022-10-19T16:51:05.448Z,99404.03
2022-10-19T16:53:32.646Z,99388.97
2022-10-19T16:56:18.284Z,99392.53
2022-10-19T16:58:45.472Z,99389.94
2022-10-19T17:01:18.145Z,99396.56
2022-10-19T17:03:46.803Z,99380.16
2022-10-19T17:06:14.815Z,99395.25
2022-10-19T17:09:23.332Z,99391.53
2022-10-19T17:11:32.795Z,99400.91
2022-10-19T17:14:03.211Z,99395.09
2022-10-19T17:16:32.033Z,99400.38
2022-10-19T17:19:00.922Z,99384.75
2022-10-19T17:21:30.483Z,99402.91
2022-10-19T17:24:00.110Z,99394.59
2022-10-19T17:26:34.065Z,99406.91
2022-10-19T17:29:01.562Z,99409.31
2022-10-19T17:31:28.819Z,99383.78
2022-10-19T17:33:56.350Z,99401.63
2022-10-19T17:36:26.581Z,99404.69
2022-10-19T17:38:55.096Z,99409.38
2022-10-19T17:41:23.015Z,99390.69
2022-10-19T17:43:54.230Z,99407.03
2022-10-19T17:46:24.142Z,99389.44
2022-10-19T17:48:51.561Z,99402.47
2022-10-19T17:51:23.649Z,99413.59
2022-10-19T17:53:51.276Z,99404.59
2022-10-19T17:56:20.848Z,99414.25
2022-10-19T17:58:49.136Z,99419.97
2022-10-19T18:01:18.246Z,99405.53
2022-10-19T18:03:45.518Z,99423.44
2022-10-19T18:06:15.241Z,99403.13
2022-10-19T18:08:44.852Z,99403.94
2022-10-19T18:11:40.395Z,99414.09
2022-10-19T18:14:08.993Z,99417.78
2022-10-19T18:16:45.691Z,99388.81
2022-10-19T18:19:16.335Z,99425.09
2022-10-19T18:22:03.582Z,99430.53
2022-10-19T18:24:30.648Z,99413.56
2022-10-19T18:26:57.755Z,99426.78
2022-10-19T18:29:26.595Z,99419.03
2022-10-19T18:31:53.868Z,99423.50
2022-10-19T18:34:24.135Z,99420.88
2022-10-19T18:36:52.010Z,99422.28
2022-10-19T18:39:19.520Z,99431.34
2022-10-19T18:41:46.449Z,99435.28
2022-10-19T18:44:13.878Z,99429.81
2022-10-19T18:46:41.086Z,99422.69
2022-10-19T18:49:09.250Z,99438.53
2022-10-19T18:51:37.043Z,99433.06
2022-10-19T18:54:04.457Z,99440.19
2022-10-19T18:56:33.622Z,99423.28
2022-10-19T18:59:00.708Z,99432.13
2022-10-19T19:01:29.184Z,99435.28
2022-10-19T19:04:04.495Z,99438.13
2022-10-19T19:06:33.183Z,99430.97
2022-10-19T19:09:01.349Z,99439.34
2022-10-19T19:11:34.293Z,99433.63
2022-10-19T19:14:07.880Z,99440.31
2022-10-19T19:16:37.671Z,99438.09
2022-10-19T19:19:05.743Z,99437.78
2022-10-19T19:21:33.365Z,99428.09
2022-10-19T19:24:03.098Z,99429.72
2022-10-19T19:26:33.267Z,99454.34
2022-10-19T19:29:01.277Z,99460.34
2022-10-19T19:31:28.601Z,99467.16
2022-10-19T19:33:55.660Z,99462.69
2022-10-19T19:36:22.674Z,99461.75
2022-10-19T19:38:51.694Z,99469.97
2022-10-19T19:41:18.508Z,99476.38
2022-10-19T19:43:45.813Z,99480.44
2022-10-19T19:46:15.690Z,99479.72
2022-10-19T19:48:45.040Z,99483.06
2022-10-19T19:51:17.155Z,99476.09
2022-10-19T19:53:45.074Z,99480.84
2022-10-19T19:56:13.580Z,99478.16
2022-10-19T19:58:41.608Z,99478.84
2022-10-19T20:01:16.948Z,99487.38
2022-10-19T20:03:45.299Z,99490.22
2022-10-19T20:06:13.065Z,99498.22
2022-10-19T20:08:40.240Z,99487.19
2022-10-19T20:11:13.518Z,99486.69
2022-10-19T20:13:40.651Z,99498.97
2022-10-19T20:16:09.875Z,99495.78
2022-10-19T20:18:36.926Z,99476.97
2022-10-19T20:21:04.730Z,99488.97
2022-10-19T20:23:31.746Z,99483.25
2022-10-19T20:25:59.078Z,99487.63
2022-10-19T20:28:27.347Z,99494.72
2022-10-19T20:31:06.212Z,99469.22
2022-10-19T20:33:34.854Z,99486.75
2022-10-19T20:36:06.544Z,99489.09
2022-10-19T20:38:36.697Z,99505.47
2022-10-19T20:41:07.925Z,99517.94
2022-10-19T20:43:38.918Z,99514.81
2022-10-19T20:46:13.540Z,99514.50
2022-10-19T20:48:41.663Z,99515.13
2022-10-19T20:51:16.443Z,99521.78
2022-10-19T20:53:46.512Z,99518.00
2022-10-19T20:56:16.028Z,99508.78
2022-10-19T20:58:43.920Z,99509.81
2022-10-19T21:01:17.102Z,99508.72
2022-10-19T21:03:56.155Z,99515.50
2022-10-19T21:06:26.100Z,99518.81
2022-10-19T21:08:53.673Z,99518.47
2022-10-19T21:11:23.452Z,99526.88
2022-10-19T21:13:54.464Z,99519.66
2022-10-19T21:16:23.667Z,99507.19
2022-10-19T21:18:51.052Z,99520.88
2022-10-19T21:21:19.707Z,99523.31
2022-10-19T21:23:48.937Z,99532.91
2022-10-19T21:26:17.315Z,99527.72
2022-10-19T21:28:48.826Z,99525.28
2022-10-19T21:31:17.259Z,99536.84
2022-10-19T21:33:44.900Z,99538.50
2022-10-19T21:36:13.559Z,99542.94
2022-10-19T21:38:41.630Z,99531.53
2022-10-19T21:41:13.143Z,99540.84
2022-10-19T21:43:40.331Z,99540.25
2022-10-19T21:46:09.427Z,99542.44
2022-10-19T21:48:36.811Z,99547.34
2022-10-19T21:51:31.358Z,99539.16
2022-10-19T21:53:58.417Z,99523.38
2022-10-19T21:56:25.584Z,99521.41
2022-10-19T21:58:53.914Z,99535.25
2022-10-19T22:01:26.317Z,99546.72
2022-10-19T22:04:02.022Z,99539.03
2022-10-19T22:06:31.104Z,99538.56
2022-10-19T22:08:58.901Z,99540.19
2022-10-19T22:11:27.062Z,99532.28
2022-10-19T22:13:55.863Z,99520.59
2022-10-19T22:16:23.141Z,99524.09
2022-10-19T22:18:51.002Z,99537.41
2022-10-19T22:21:23.658Z,99527.91
2022-10-19T22:24:00.568Z,99522.22
2022-10-19T22:26:33.256Z,99535.84
2022-10-19T22:29:02.154Z,99538.88
2022-10-19T22:31:31.120Z,99539.13
2022-10-19T22:34:00.397Z,99537.97
2022-10-19T22:36:27.895Z,99535.84
2022-10-19T22:38:55.188Z,99540.47
2022-10-19T22:41:22.369Z,99535.81
2022-10-19T22:43:49.278Z,99548.09
2022-10-19T22:46:16.187Z,99546.16
2022-10-19T22:48:43.087Z,99547.22
2022-10-19T22:51:10.169Z,99547.22
2022-10-19T22:53:37.381Z,99548.28
2022-10-19T22:56:05.000Z,99541.09
2022-10-19T22:58:31.931Z,99526.91
2022-10-19T23:01:08.271Z,99546.84
2022-10-19T23:03:35.467Z,99544.34
2022-10-19T23:06:02.382Z,99541.09
2022-10-19T23:08:29.377Z,99556.59
2022-10-19T23:10:56.465Z,99565.56
2022-10-19T23:13:23.581Z,99556.78
2022-10-19T23:15:53.626Z,99565.56
2022-10-19T23:18:20.673Z,99566.84
2022-10-19T23:21:02.070Z,99565.53
2022-10-19T23:23:29.773Z,99561.22
2022-10-19T23:26:05.077Z,99562.94
2022-10-19T23:28:33.590Z,99560.72
2022-10-19T23:31:08.661Z,99566.97
2022-10-19T23:33:36.383Z,99574.84
2022-10-19T23:36:06.751Z,99568.13
2022-10-19T23:38:34.499Z,99588.09
2022-10-19T23:41:01.847Z,99589.19
2022-10-19T23:43:29.104Z,99588.66
2022-10-19T23:45:56.385Z,99584.78
2022-10-19T23:48:23.320Z,99588.59
2022-10-19T23:51:11.021Z,99586.38
2022-10-19T23:53:41.358Z,99599.69
2022-10-19T23:56:29.523Z,99588.25
2022-10-19T23:58:57.136Z,99596.06
